Time;durP1;ratioP1;P1;durP2;ratioP2;P2;SDS_P1;SDS_P2;PMS_P1;PMS_P2;Temp;Humidity;BMP_temperature;BMP_pressure;BME280_temperature;BME280_humidity;BME280_pressure;Samples;Min_cycle;Max_cycle;Signal;HPM_P1;HPM_P2
2021/10/20 00:02:00;;;;;;;11.63;8.18;;;;;;;13.80;64.32;100418.47;2240859;78;33724;-63
2021/10/20 00:05:07;;;;;;;17.17;8.38;;;;;;;13.80;64.27;100415.78;2308050;77;29020;-64
2021/10/20 00:08:13;;;;;;;12.47;8.33;;;;;;;13.82;64.23;100415.20;2308373;77;27702;-64
2021/10/20 00:11:20;;;;;;;12.70;8.03;;;;;;;13.80;64.26;100413.58;2288854;77;28686;-64
2021/10/20 00:14:26;;;;;;;14.43;8.50;;;;;;;13.81;64.27;100408.59;2258959;78;31016;-64
2021/10/20 00:17:31;;;;;;;11.15;8.78;;;;;;;13.80;64.14;100398.77;2257344;78;33891;-64
2021/10/20 00:20:39;;;;;;;12.73;7.97;;;;;;;13.80;64.19;100398.77;2259901;77;28995;-64
2021/10/20 00:23:46;;;;;;;11.90;7.92;;;;;;;13.79;64.30;100400.58;2265745;78;27660;-64
2021/10/20 00:26:52;;;;;;;10.35;7.53;;;;;;;13.81;64.53;100389.73;2265739;78;28651;-64
2021/10/20 00:29:58;;;;;;;11.50;7.47;;;;;;;13.85;64.71;100387.22;2265736;78;31929;-64
2021/10/20 00:33:03;;;;;;;10.43;7.60;;;;;;;13.88;64.87;100378.95;2300699;77;33778;-63
2021/10/20 00:36:09;;;;;;;8.23;6.72;;;;;;;13.93;64.94;100374.61;2277310;77;29068;-63
2021/10/20 00:39:15;;;;;;;11.53;7.25;;;;;;;13.97;65.03;100364.92;2307642;77;27667;-63
2021/10/20 00:42:21;;;;;;;10.68;7.10;;;;;;;14.04;65.08;100355.09;2253561;78;28682;-63
2021/10/20 00:45:22;;;;;;;9.60;7.10;;;;;;;14.08;65.08;100348.05;2265510;77;31047;-64
2021/10/20 00:48:28;;;;;;;13.62;7.72;;;;;;;14.12;65.06;100341.52;2258716;78;32939;-63
2021/10/20 00:51:32;;;;;;;11.20;7.28;;;;;;;14.17;65.05;100337.17;2230914;77;29016;-64
2021/10/20 00:54:37;;;;;;;10.55;6.92;;;;;;;14.20;65.02;100330.25;2264785;77;27648;-63
2021/10/20 00:57:45;;;;;;;10.40;7.47;;;;;;;14.23;65.04;100324.66;2265828;77;28676;-65
2021/10/20 01:00:47;;;;;;;11.93;7.80;;;;;;;14.26;65.07;100323.12;2265546;78;32006;-64
2021/10/20 01:03:49;;;;;;;9.43;7.05;;;;;;;14.31;65.10;100324.66;2305505;77;32958;-66
2021/10/20 01:06:51;;;;;;;8.33;7.15;;;;;;;14.35;65.14;100316.73;2307129;77;29070;-65
2021/10/20 01:09:57;;;;;;;10.25;6.72;;;;;;;14.38;65.16;100307.99;2307612;76;27578;-63
2021/10/20 01:12:59;;;;;;;9.05;6.60;;;;;;;14.41;65.15;100312.30;2307307;77;29455;-63
2021/10/20 01:16:02;;;;;;;10.23;7.15;;;;;;;14.46;65.14;100313.34;2305903;77;32234;-64
2021/10/20 01:19:08;;;;;;;8.95;7.20;;;;;;;14.49;65.18;100319.39;2239476;78;34035;-65
2021/10/20 01:22:15;;;;;;;8.93;7.45;;;;;;;14.53;65.19;100322.77;2222648;80;29195;-64
2021/10/20 01:25:21;;;;;;;12.68;6.85;;;;;;;14.55;65.21;100317.65;2264296;78;27652;-64
2021/10/20 01:28:27;;;;;;;9.00;6.65;;;;;;;14.59;65.24;100309.75;2228160;78;29546;-64
2021/10/20 01:31:33;;;;;;;11.45;6.00;;;;;;;14.62;65.22;100305.97;2266218;78;31635;-65
2021/10/20 01:34:35;;;;;;;8.58;5.97;;;;;;;14.66;65.22;100308.85;2266228;78;33209;-64
2021/10/20 01:37:40;;;;;;;7.22;5.72;;;;;;;14.69;65.19;100304.64;2266023;78;29123;-64
2021/10/20 01:40:44;;;;;;;9.38;5.83;;;;;;;14.71;65.15;100300.48;2238812;78;27641;-64
2021/10/20 01:43:48;;;;;;;10.38;5.67;;;;;;;14.72;65.16;100296.35;2237464;78;29515;-64
2021/10/20 01:46:56;;;;;;;6.80;4.87;;;;;;;14.73;65.16;100299.40;2266336;78;31044;-64
2021/10/20 01:50:02;;;;;;;8.48;5.58;;;;;;;14.76;65.17;100296.12;2265136;77;34081;-64
2021/10/20 01:53:05;;;;;;;8.83;5.58;;;;;;;14.77;65.20;100291.11;2263231;78;28457;-64
2021/10/20 01:56:08;;;;;;;11.83;5.70;;;;;;;14.80;65.19;100292.25;2262082;78;27707;-64
2021/10/20 01:59:10;;;;;;;8.38;5.40;;;;;;;14.81;65.26;100291.28;2261672;78;29481;-65
2021/10/20 02:02:17;;;;;;;5.58;4.85;;;;;;;14.83;65.24;100289.36;2223938;80;31328;-64
2021/10/20 02:05:23;;;;;;;9.63;5.35;;;;;;;14.84;65.29;100285.19;2222587;79;33839;-65
2021/10/20 02:08:27;;;;;;;6.40;4.92;;;;;;;14.86;65.31;100278.36;2223558;80;30169;-64
2021/10/20 02:11:34;;;;;;;7.83;5.00;;;;;;;14.86;65.37;100277.02;2254910;78;27711;-63
2021/10/20 02:14:38;;;;;;;10.48;5.00;;;;;;;14.90;65.37;100270.42;2261571;78;29445;-64
2021/10/20 02:17:40;;;;;;;5.17;4.22;;;;;;;14.92;65.44;100269.83;2261834;78;31823;-63
2021/10/20 02:20:46;;;;;;;7.97;5.00;;;;;;;14.93;65.44;100267.52;2263657;78;33403;-65
2021/10/20 02:23:51;;;;;;;7.08;5.50;;;;;;;14.94;65.51;100260.30;2263302;78;28894;-64
2021/10/20 02:26:57;;;;;;;;;;;;;;;14.96;65.50;100261.92;2264649;78;27561;-64
2021/10/20 02:30:02;;;;;;;6.58;5.87;;;;;;;14.98;65.56;100258.63;2261698;78;29493;-63
2021/10/20 02:33:09;;;;;;;8.38;5.65;;;;;;;14.97;65.60;100250.66;2261552;78;31815;-63
2021/10/20 02:36:15;;;;;;;8.38;5.40;;;;;;;14.97;65.54;100239.87;2261263;78;32936;-63
2021/10/20 02:39:18;;;;;;;7.97;5.47;;;;;;;14.96;65.57;100237.64;2261228;78;29869;-65
2021/10/20 02:42:21;;;;;;;7.00;5.20;;;;;;;14.96;65.59;100243.03;2261882;78;27649;-63
2021/10/20 02:45:24;;;;;;;9.05;5.35;;;;;;;14.95;65.60;100233.71;2261337;78;28620;-63
2021/10/20 02:48:28;;;;;;;10.82;5.95;;;;;;;14.94;65.64;100238.72;2263788;77;31006;-64
2021/10/20 02:51:32;;;;;;;8.13;5.75;;;;;;;14.93;65.69;100228.91;2304965;77;33813;-63
2021/10/20 02:54:39;;;;;;;7.40;5.62;;;;;;;14.88;65.62;100230.08;2305595;77;29022;-65
2021/10/20 02:57:46;;;;;;;10.72;6.12;;;;;;;14.85;65.64;100233.48;2267911;77;27615;-65
2021/10/20 03:00:52;;;;;;;6.53;5.35;;;;;;;14.77;65.65;100230.42;2238974;78;28710;-64
2021/10/20 03:03:54;;;;;;;8.73;5.85;;;;;;;14.68;65.70;100230.11;2264309;78;31005;-65
2021/10/20 03:06:56;;;;;;;6.50;5.08;;;;;;;14.55;65.77;100223.29;2265193;78;33027;-64
2021/10/20 03:09:57;;;;;;;8.28;5.20;;;;;;;14.44;65.87;100223.16;2266104;78;30278;-64
2021/10/20 03:13:02;;;;;;;10.82;5.03;;;;;;;14.32;65.94;100218.10;2266810;78;27597;-64
2021/10/20 03:16:07;;;;;;;10.18;6.37;;;;;;;14.19;66.15;100215.35;2239907;78;28630;-64
2021/10/20 03:19:10;;;;;;;8.88;5.47;;;;;;;14.07;66.29;100217.52;2241644;78;31011;-64
2021/10/20 03:22:17;;;;;;;8.15;4.87;;;;;;;13.94;66.53;100214.75;2266125;78;33852;-64
2021/10/20 03:25:22;;;;;;;6.92;5.53;;;;;;;13.83;66.64;100212.75;2241876;78;29818;-64
2021/10/20 03:28:28;;;;;;;8.53;5.25;;;;;;;13.74;66.96;100206.63;2265808;78;27608;-63
2021/10/20 03:31:35;;;;;;;6.08;5.22;;;;;;;13.64;67.19;100205.01;2264336;78;29521;-62
2021/10/20 03:34:41;;;;;;;7.78;5.53;;;;;;;13.56;67.48;100206.00;2239079;78;31900;-64
2021/10/20 03:37:48;;;;;;;6.28;5.42;;;;;;;13.47;67.45;100205.61;2239392;78;32942;-64
2021/10/20 03:40:50;;;;;;;7.83;5.75;;;;;;;13.40;67.75;100208.31;2266543;78;28458;-65
2021/10/20 03:43:51;;;;;;;8.03;5.55;;;;;;;13.31;67.84;100197.63;2266532;78;27577;-64
2021/10/20 03:46:58;;;;;;;9.08;5.83;;;;;;;13.25;68.05;100197.11;2266001;78;29544;-66
2021/10/20 03:50:04;;;;;;;8.18;5.28;;;;;;;13.17;68.19;100199.82;2239997;78;31995;-65
2021/10/20 03:53:08;;;;;;;7.47;5.15;;;;;;;13.10;68.36;100202.98;2263455;78;33916;-64
2021/10/20 03:56:13;;;;;;;9.80;5.78;;;;;;;13.03;68.58;100206.04;2264627;77;31991;-63
2021/10/20 03:59:15;;;;;;;7.22;5.25;;;;;;;12.97;68.71;100202.41;2263428;78;27608;-64
2021/10/20 04:02:20;;;;;;;7.85;5.30;;;;;;;12.90;68.77;100201.92;2263748;78;28783;-64
2021/10/20 04:05:25;;;;;;;;;;;;;;;12.86;69.14;100206.20;2265134;78;31053;-64
2021/10/20 04:08:26;;;;;;;6.50;5.80;;;;;;;12.79;69.41;100200.34;2238999;78;32952;-64
2021/10/20 04:11:30;;;;;;;7.10;6.28;;;;;;;12.72;69.63;100208.41;2263527;78;29063;-65
2021/10/20 04:14:35;;;;;;;12.50;8.30;;;;;;;12.66;70.09;100204.23;2262992;78;27725;-64
2021/10/20 04:17:38;;;;;;;;;;;;;;;12.62;70.07;100202.72;2264215;78;29397;-67
2021/10/20 04:20:44;;;;;;;7.92;6.08;;;;;;;12.58;70.23;100201.16;2261362;78;32046;-66
2021/10/20 04:23:46;;;;;;;11.75;7.55;;;;;;;12.52;70.40;100199.70;2261378;78;33756;-66
2021/10/20 04:26:51;;;;;;;8.90;6.97;;;;;;;12.48;70.79;100200.84;2263822;78;29368;-64
2021/10/20 04:29:59;;;;;;;;;;;;;;;12.45;70.92;100199.21;2266358;78;27700;-66
2021/10/20 04:33:00;;;;;;;10.08;7.35;;;;;;;12.42;71.12;100199.84;2262809;78;30438;-65
2021/10/20 04:36:01;;;;;;;11.03;8.05;;;;;;;12.37;71.25;100199.27;2261455;78;31011;-64
2021/10/20 04:39:03;;;;;;;12.00;7.30;;;;;;;12.34;71.15;100185.52;2231977;78;34040;-64
2021/10/20 04:42:09;;;;;;;10.20;7.45;;;;;;;12.30;71.36;100186.19;2242983;78;29392;-63
2021/10/20 04:45:15;;;;;;;12.00;8.50;;;;;;;12.29;71.65;100183.12;2260871;78;27604;-63
2021/10/20 04:48:17;;;;;;;10.25;7.17;;;;;;;12.26;71.62;100183.29;2261451;78;29786;-63
2021/10/20 04:51:23;;;;;;;9.83;7.87;;;;;;;12.24;71.65;100183.00;2263613;78;31360;-63
2021/10/20 04:54:29;;;;;;;11.05;7.80;;;;;;;12.22;71.83;100190.28;2238492;78;33830;-63
2021/10/20 04:57:35;;;;;;;9.20;7.83;;;;;;;12.20;71.83;100178.76;2263378;78;29018;-62
2021/10/20 05:00:41;;;;;;;11.00;8.80;;;;;;;12.16;71.82;100174.05;2264163;78;27692;-62
2021/10/20 05:03:47;;;;;;;11.20;8.63;;;;;;;12.14;72.09;100178.64;2238612;78;28631;-62
2021/10/20 05:06:53;;;;;;;10.90;8.83;;;;;;;12.09;72.08;100173.55;2239493;78;30972;-63
2021/10/20 05:09:59;;;;;;;9.90;8.15;;;;;;;12.05;72.07;100172.48;2266414;78;32953;-64
2021/10/20 05:13:03;;;;;;;9.95;7.65;;;;;;;12.00;72.11;100176.75;2265574;78;29178;-63
2021/10/20 05:16:09;;;;;;;10.78;9.68;;;;;;;11.98;72.08;100169.25;2263376;77;27595;-63
2021/10/20 05:19:15;;;;;;;13.75;8.28;;;;;;;11.94;72.27;100166.34;2265815;78;28669;-63
2021/10/20 05:22:16;;;;;;;13.15;9.05;;;;;;;11.91;72.34;100169.20;2265873;78;31855;-63
2021/10/20 05:25:19;;;;;;;11.18;9.30;;;;;;;11.88;72.41;100166.69;2261890;78;33319;-62
2021/10/20 05:28:21;;;;;;;11.45;8.50;;;;;;;11.86;72.77;100163.62;2265593;78;29353;-63
2021/10/20 05:31:25;;;;;;;12.13;9.20;;;;;;;11.84;72.84;100168.20;2262115;78;27520;-62
2021/10/20 05:34:31;;;;;;;11.00;8.68;;;;;;;11.83;72.94;100151.70;2264096;78;29497;-63
2021/10/20 05:37:37;;;;;;;11.10;9.10;;;;;;;11.85;73.09;100152.48;2264326;78;31196;-62
2021/10/20 05:40:46;;;;;;;14.47;9.93;;;;;;;11.86;73.05;100150.69;2265223;78;33004;-64
2021/10/20 05:43:51;;;;;;;15.38;10.18;;;;;;;11.86;73.32;100150.20;2266237;78;28996;-64
2021/10/20 05:46:55;;;;;;;13.13;9.75;;;;;;;11.89;73.48;100142.46;2239235;78;27750;-63
2021/10/20 05:50:01;;;;;;;13.95;9.90;;;;;;;11.90;73.38;100141.52;2243757;78;29473;-63
2021/10/20 05:53:07;;;;;;;23.20;9.70;;;;;;;11.93;73.42;100139.97;2264076;78;32092;-63
2021/10/20 05:56:08;;;;;;;14.25;9.38;;;;;;;11.96;73.27;100146.50;2263829;78;32935;-63
2021/10/20 05:59:10;;;;;;;14.85;9.70;;;;;;;11.97;73.25;100142.87;2264078;78;30206;-62
2021/10/20 06:02:14;;;;;;;15.83;10.00;;;;;;;11.99;73.22;100146.86;2265211;78;27601;-62
2021/10/20 06:05:20;;;;;;;15.53;9.70;;;;;;;12.02;73.21;100143.97;2264132;78;29501;-62
2021/10/20 06:08:23;;;;;;;14.38;9.63;;;;;;;12.03;73.16;100135.45;2236491;78;30987;-62
2021/10/20 06:11:26;;;;;;;13.20;9.60;;;;;;;12.05;73.26;100138.92;2263969;78;33755;-62
2021/10/20 06:14:32;;;;;;;19.52;10.35;;;;;;;12.09;73.28;100135.07;2234927;78;29016;-63
2021/10/20 06:17:37;;;;;;;17.05;9.70;;;;;;;12.11;73.27;100134.05;2282215;77;28171;-63
2021/10/20 06:20:40;;;;;;;14.87;10.00;;;;;;;12.16;73.27;100134.63;2266812;77;28616;-63
2021/10/20 06:23:44;;;;;;;13.25;10.00;;;;;;;12.22;73.37;100126.70;2266488;77;30990;-63
2021/10/20 06:26:48;;;;;;;14.83;10.40;;;;;;;12.28;73.40;100130.34;2275885;77;32942;-63
2021/10/20 06:29:54;;;;;;;12.17;9.53;;;;;;;12.38;73.39;100132.50;2239926;78;29670;-63
2021/10/20 06:33:00;;;;;;;16.12;9.95;;;;;;;12.45;73.41;100129.36;2229914;77;27693;-63
2021/10/20 06:36:02;;;;;;;13.53;10.28;;;;;;;12.54;73.38;100127.05;2257203;78;28632;-63
2021/10/20 06:39:05;;;;;;;14.83;9.25;;;;;;;12.61;73.31;100123.89;2245133;77;31284;-64
2021/10/20 06:42:08;;;;;;;17.90;10.38;;;;;;;12.71;73.32;100122.01;2259291;77;34163;-64
2021/10/20 06:45:10;;;;;;;13.68;9.10;;;;;;;12.80;73.35;100130.83;2251592;78;29659;-64
2021/10/20 06:48:14;;;;;;;13.38;9.48;;;;;;;12.89;73.26;100122.67;2263549;77;28173;-63
2021/10/20 06:51:17;;;;;;;13.83;8.80;;;;;;;13.00;73.27;100124.70;2252800;77;28622;-63
2021/10/20 06:54:23;;;;;;;18.52;9.03;;;;;;;13.12;73.21;100123.92;2257016;78;31388;-63
2021/10/20 06:57:26;;;;;;;12.37;8.15;;;;;;;13.26;73.23;100121.70;2246419;77;32932;-63
2021/10/20 07:00:32;;;;;;;13.05;8.50;;;;;;;13.42;73.14;100124.79;2221645;79;29021;-62
2021/10/20 07:03:39;;;;;;;15.25;8.23;;;;;;;13.56;72.99;100126.10;2196221;79;27730;-62
2021/10/20 07:06:48;;;;;;;12.53;7.83;;;;;;;13.73;72.91;100116.05;2170118;81;28796;-62
2021/10/20 07:09:50;;;;;;;12.05;7.65;;;;;;;13.91;72.92;100110.80;2262775;78;31013;-64
2021/10/20 07:12:56;;;;;;;13.22;8.10;;;;;;;14.10;72.76;100105.03;2275983;78;32960;-63
2021/10/20 07:16:00;;;;;;;15.60;7.40;;;;;;;14.28;72.66;100106.97;2236631;78;29017;-63
2021/10/20 07:19:07;;;;;;;11.08;6.92;;;;;;;14.47;72.44;100098.09;2228228;79;28134;-63
2021/10/20 07:22:12;;;;;;;11.48;6.15;;;;;;;14.65;72.30;100090.07;2197102;79;28247;-63
2021/10/20 07:25:21;;;;;;;;;;;;;;;14.83;71.93;100093.32;2213147;79;31850;-64
2021/10/20 07:28:26;;;;;;;9.30;6.08;;;;;;;15.00;71.71;100098.00;2245885;78;32376;-64
2021/10/20 07:31:32;;;;;;;;;;;;;;;15.15;71.52;100096.89;2223376;79;29045;-64
2021/10/20 07:34:37;;;;;;;;;;;;;;;15.34;71.29;100100.48;2219346;78;27742;-65
2021/10/20 07:37:44;;;;;;;11.00;6.53;;;;;;;15.56;71.08;100092.14;2266039;78;28648;-65
2021/10/20 07:40:49;;;;;;;13.78;6.58;;;;;;;15.76;70.96;100082.58;2275762;78;31811;-63
2021/10/20 07:43:54;;;;;;;13.70;6.42;;;;;;;16.04;70.76;100076.95;2256655;78;34063;-65
2021/10/20 07:46:59;;;;;;;9.63;4.83;;;;;;;16.28;70.25;100071.50;2218405;79;29188;-68
2021/10/20 07:50:05;;;;;;;11.38;4.62;;;;;;;16.48;69.82;100065.89;2222587;79;27720;-69
2021/10/20 07:53:10;;;;;;;9.00;4.22;;;;;;;16.66;69.57;100064.07;2236519;78;29430;-65
2021/10/20 07:56:14;;;;;;;;;;;;;;;16.82;69.15;100063.22;2234299;78;30992;-67
2021/10/20 07:59:21;;;;;;;9.68;4.55;;;;;;;16.99;68.40;100059.17;2195475;81;33017;-65
2021/10/20 08:02:24;;;;;;;7.97;4.50;;;;;;;17.16;68.20;100058.30;2217874;78;29014;-65
2021/10/20 08:05:30;;;;;;;8.30;3.92;;;;;;;17.39;67.93;100059.62;2235983;78;27874;-66
2021/10/20 08:08:35;;;;;;;9.25;4.37;;;;;;;17.61;67.37;100057.34;2195932;79;28145;-66
2021/10/20 08:11:37;;;;;;;9.23;3.90;;;;;;;17.80;66.64;100049.88;2196672;78;31178;-65
2021/10/20 08:14:43;;;;;;;7.50;3.72;;;;;;;17.99;66.21;100053.78;2202916;78;33003;-67
2021/10/20 08:17:50;;;;;;;8.68;4.10;;;;;;;18.16;65.98;100041.52;2196101;79;29042;-65
2021/10/20 08:20:52;;;;;;;14.90;4.20;;;;;;;18.36;65.36;100041.14;2195051;81;27650;-64
2021/10/20 08:23:59;;;;;;;6.35;4.08;;;;;;;18.51;65.21;100033.53;2255554;78;29376;-65
2021/10/20 08:27:03;;;;;;;7.83;4.00;;;;;;;18.61;64.52;100031.72;2275636;78;31902;-64
2021/10/20 08:30:18;;;;;;;10.08;4.22;;;;;;;18.74;64.20;100030.63;2218342;78;33553;-64
2021/10/20 08:33:24;;;;;;;12.53;3.95;;;;;;;18.88;63.76;100019.39;2218400;78;35043;-66
2021/10/20 08:36:30;;;;;;;8.25;4.12;;;;;;;19.01;63.40;100018.35;2234836;79;28307;-68
2021/10/20 08:39:36;;;;;;;7.40;3.80;;;;;;;19.09;63.30;100011.72;2235400;79;28623;-70
2021/10/20 08:42:43;;;;;;;8.40;3.90;;;;;;;19.20;62.53;100010.23;2222245;78;31013;-66
2021/10/20 08:45:50;;;;;;;6.20;4.05;;;;;;;19.27;61.69;100005.12;2223934;79;32946;-66
2021/10/20 08:49:00;;;;;;;10.80;3.83;;;;;;;19.35;61.61;99995.77;2235046;79;29007;-66
2021/10/20 08:52:03;;;;;;;8.75;3.92;;;;;;;19.50;61.88;100002.14;2234960;79;27681;-65
2021/10/20 08:55:07;;;;;;;9.00;5.25;;;;;;;19.65;61.18;99992.56;2273766;78;28854;-69
2021/10/20 08:58:13;;;;;;;6.28;3.55;;;;;;;19.79;60.68;99995.36;2292667;77;31689;-71
2021/10/20 09:01:19;;;;;;;10.13;4.25;;;;;;;19.87;60.69;99989.23;2307299;77;32968;-65
2021/10/20 09:04:25;;;;;;;7.97;4.03;;;;;;;20.03;60.74;99984.55;2278798;77;29676;-65
2021/10/20 09:07:30;;;;;;;5.37;3.92;;;;;;;20.20;60.35;99978.87;2265540;78;27700;-65
2021/10/20 09:10:36;;;;;;;6.67;4.05;;;;;;;20.33;59.98;99973.97;2275190;77;29504;-65
2021/10/20 09:13:43;;;;;;;5.50;4.25;;;;;;;20.45;59.73;99971.93;2306017;77;31852;-66
2021/10/20 09:16:51;;;;;;;6.47;3.72;;;;;;;20.56;58.78;99970.89;2267489;77;33187;-65
2021/10/20 09:20:00;;;;;;;10.35;4.00;;;;;;;20.63;58.51;99967.06;2265698;77;29011;-66
2021/10/20 09:23:18;;;;;;;8.25;3.95;;;;;;;20.67;57.89;99957.60;2265706;78;27683;-67
2021/10/20 09:26:26;;;;;;;13.48;4.10;;;;;;;20.72;57.93;99956.63;2231923;78;30738;-65
2021/10/20 09:29:32;;;;;;;5.65;4.00;;;;;;;20.86;57.64;99947.14;2260910;77;31031;-65
2021/10/20 09:32:39;;;;;;;5.80;3.00;;;;;;;20.99;57.25;99946.78;2296050;77;32988;-65
2021/10/20 09:35:46;;;;;;;8.63;3.33;;;;;;;21.11;56.98;99940.59;2256923;78;29039;-65
2021/10/20 09:38:51;;;;;;;6.67;3.83;;;;;;;21.24;56.12;99940.22;2233906;77;27696;-65
2021/10/20 09:42:08;;;;;;;5.80;3.10;;;;;;;21.39;56.17;99935.95;2253903;77;28718;-65
2021/10/20 09:45:19;;;;;;;5.70;2.62;;;;;;;21.50;55.37;99939.47;2192109;80;31188;-66
2021/10/20 09:48:27;;;;;;;4.92;3.10;;;;;;;21.52;54.66;99929.23;2270310;77;32962;-65
2021/10/20 09:51:38;;;;;;;4.95;2.80;;;;;;;21.50;54.18;99933.50;2265305;78;29031;-64
2021/10/20 09:54:45;;;;;;;2.75;2.45;;;;;;;21.48;53.42;99927.86;2264989;78;27667;-65
2021/10/20 09:57:51;;;;;;;4.40;2.72;;;;;;;21.46;53.02;99923.91;2281065;77;28679;-65
2021/10/20 10:00:55;;;;;;;8.70;3.10;;;;;;;21.52;54.02;99927.38;2250184;77;31037;-65
2021/10/20 10:04:02;;;;;;;5.63;3.20;;;;;;;21.59;53.06;99922.16;2225379;78;33779;-66
2021/10/20 10:07:05;;;;;;;5.97;3.10;;;;;;;21.59;53.06;99922.16;2224909;79;29721;-66
2021/10/20 10:10:09;;;;;;;2.65;2.15;;;;;;;21.55;52.69;99923.48;2238757;78;27692;-66
2021/10/20 10:13:16;;;;;;;4.97;2.92;;;;;;;21.44;52.03;99919.64;2283550;77;29447;-65
2021/10/20 10:16:23;;;;;;;5.08;3.00;;;;;;;21.24;52.16;99904.31;2297223;77;31327;-65
2021/10/20 10:19:28;;;;;;;2.85;2.33;;;;;;;21.09;51.64;99901.27;2201475;77;33057;-67
2021/10/20 10:22:34;;;;;;;3.10;2.00;;;;;;;20.97;51.53;99899.78;2276904;77;29018;-66
2021/10/20 10:25:42;;;;;;;4.72;2.37;;;;;;;20.91;51.25;99891.73;2259069;78;28327;-66
2021/10/20 10:28:49;;;;;;;5.53;2.20;;;;;;;20.91;51.70;99886.28;2255122;78;28655;-66
2021/10/20 10:31:56;;;;;;;6.00;2.65;;;;;;;20.93;51.13;99869.25;2140768;80;31052;-67
2021/10/20 10:35:07;;;;;;;8.70;2.35;;;;;;;20.97;50.54;99866.23;2232012;77;33137;-66
2021/10/20 10:38:15;;;;;;;4.80;2.42;;;;;;;21.01;50.80;99864.43;2223698;80;28245;-68
2021/10/20 10:41:37;;;;;;;6.00;2.22;;;;;;;21.05;50.10;99854.07;2225282;79;27630;-65
2021/10/20 10:44:50;;;;;;;4.87;2.45;;;;;;;21.07;49.54;99853.41;2234659;77;29633;-66
2021/10/20 10:48:03;;;;;;;4.58;2.80;;;;;;;21.10;49.44;99857.16;2307089;77;30461;-67
2021/10/20 10:51:19;;;;;;;6.47;2.40;;;;;;;21.15;49.88;99843.94;2224312;79;32953;-67
2021/10/20 10:54:42;;;;;;;4.35;2.30;;;;;;;21.21;50.14;99839.24;2257447;78;29857;-68
2021/10/20 10:57:57;;;;;;;6.80;2.12;;;;;;;21.25;49.40;99836.56;2235434;77;27724;-68
2021/10/20 11:01:03;;;;;;;2.30;1.77;;;;;;;21.29;49.35;99822.11;2282545;77;30006;-68
2021/10/20 11:04:25;;;;;;;3.45;2.55;;;;;;;21.34;49.30;99817.05;2272027;77;31018;-68
2021/10/20 11:07:31;;;;;;;4.30;2.50;;;;;;;21.37;48.94;99807.16;2296020;77;33050;-69
2021/10/20 11:10:36;;;;;;;6.85;2.33;;;;;;;21.45;49.24;99797.36;2212721;77;29816;-68
2021/10/20 11:13:42;;;;;;;3.77;2.27;;;;;;;21.44;48.69;99793.76;2198146;81;27609;-68
2021/10/20 11:16:52;;;;;;;4.40;2.50;;;;;;;21.38;48.71;99778.06;2243736;77;28645;-66
2021/10/20 11:19:56;;;;;;;4.10;2.45;;;;;;;21.30;48.27;99770.69;2209427;80;31106;-68
2021/10/20 11:23:07;;;;;;;6.60;2.77;;;;;;;21.28;48.38;99768.62;2224795;80;30434;-68
2021/10/20 11:26:10;;;;;;;7.50;3.50;;;;;;;21.30;48.78;99765.73;2264022;77;29004;-67
2021/10/20 11:29:14;;;;;;;6.20;2.35;;;;;;;21.34;48.42;99758.95;2306028;77;27755;-68
2021/10/20 11:32:22;;;;;;;5.78;2.35;;;;;;;21.41;48.68;99747.78;2307264;77;29470;-66
2021/10/20 11:35:32;;;;;;;4.50;2.47;;;;;;;21.45;47.97;99749.66;2306724;77;31824;-67
2021/10/20 11:38:42;;;;;;;3.45;2.33;;;;;;;21.50;48.46;99744.07;2235087;77;33745;-67
2021/10/20 11:41:52;;;;;;;3.47;2.58;;;;;;;21.59;48.54;99734.08;2223679;79;29194;-67
2021/10/20 11:45:04;;;;;;;5.53;2.35;;;;;;;21.69;48.53;99734.83;2125445;81;27789;-67
2021/10/20 11:48:09;;;;;;;5.17;2.87;;;;;;;21.82;48.45;99734.91;2139866;83;28677;-68
2021/10/20 11:51:13;;;;;;;3.92;2.83;;;;;;;21.94;48.31;99719.95;2138741;83;31192;-68
2021/10/20 11:54:17;;;;;;;3.08;2.33;;;;;;;22.00;48.14;99706.16;2149891;81;32971;-68
2021/10/20 11:57:20;;;;;;;5.08;2.60;;;;;;;22.04;48.06;99708.05;2184754;81;37276;-68
2021/10/20 12:00:23;;;;;;;3.47;2.58;;;;;;;22.09;47.79;99709.25;2184365;81;27777;-68
2021/10/20 12:03:38;;;;;;;4.45;2.92;;;;;;;22.15;47.55;99706.39;2184214;81;29360;-68
2021/10/20 12:06:44;;;;;;;5.90;3.08;;;;;;;22.23;47.03;99700.09;2139988;81;31241;-69
2021/10/20 12:09:51;;;;;;;4.87;3.12;;;;;;;22.28;47.33;99708.12;2146405;81;32975;-68
2021/10/20 12:12:58;;;;;;;5.47;2.47;;;;;;;22.31;46.98;99701.47;2157333;81;29126;-68
2021/10/20 12:16:05;;;;;;;4.47;3.30;;;;;;;22.30;47.10;99696.53;2160512;81;27818;-68
2021/10/20 12:19:12;;;;;;;6.15;3.05;;;;;;;22.30;46.59;99691.57;2184816;81;28823;-68
2021/10/20 12:22:16;;;;;;;5.03;2.80;;;;;;;22.26;46.60;99688.83;2237108;77;31060;-68
2021/10/20 12:25:22;;;;;;;;;;;;;;;22.24;46.97;99679.45;2268168;78;33206;-68
2021/10/20 12:28:29;;;;;;;7.40;3.12;;;;;;;22.24;46.61;99676.73;2259399;78;28998;-68
2021/10/20 12:31:37;;;;;;;8.20;3.35;;;;;;;22.19;46.63;99670.07;2225211;80;27702;-68
2021/10/20 12:35:03;;;;;;;11.83;3.20;;;;;;;22.17;46.72;99663.43;2248473;77;28768;-69
2021/10/20 12:38:09;;;;;;;6.30;2.62;;;;;;;22.17;46.39;99664.80;2235304;77;31057;-69
2021/10/20 12:41:20;;;;;;;6.25;3.02;;;;;;;22.17;46.45;99652.52;2195833;80;35201;-70
2021/10/20 12:44:25;;;;;;;7.17;3.08;;;;;;;22.14;46.58;99642.77;2225318;78;29021;-69
2021/10/20 12:47:33;;;;;;;4.25;3.00;;;;;;;22.18;46.38;99635.63;2278922;77;27711;-69
2021/10/20 12:50:41;;;;;;;5.65;2.65;;;;;;;22.15;46.15;99624.02;2306577;77;28659;-69
2021/10/20 12:53:48;;;;;;;5.97;3.25;;;;;;;22.14;46.25;99617.38;2307280;77;32875;-68
2021/10/20 12:56:55;;;;;;;4.80;3.22;;;;;;;22.13;46.42;99614.31;2289817;77;32977;-68
2021/10/20 13:00:06;;;;;;;4.65;3.30;;;;;;;22.11;46.46;99600.81;2244137;77;29818;-68
2021/10/20 13:03:19;;;;;;;5.37;3.55;;;;;;;22.09;46.30;99608.31;2220197;79;28182;-68
2021/10/20 13:06:24;;;;;;;10.82;3.70;;;;;;;22.05;46.10;99600.64;2235496;78;28671;-67
2021/10/20 13:09:30;;;;;;;9.65;3.55;;;;;;;21.99;46.21;99603.05;2215772;78;31009;-66
2021/10/20 13:12:34;;;;;;;4.60;2.83;;;;;;;21.98;46.13;99597.24;2169695;81;33014;-67
2021/10/20 13:15:38;;;;;;;4.78;3.12;;;;;;;21.95;46.21;99592.61;2195535;81;29060;-68
2021/10/20 13:18:44;;;;;;;5.50;2.90;;;;;;;21.96;46.37;99588.38;2231418;78;27641;-65
2021/10/20 13:21:51;;;;;;;6.67;3.35;;;;;;;21.93;46.48;99584.61;2229947;79;28686;-66
2021/10/20 13:24:57;;;;;;;6.65;3.42;;;;;;;21.90;46.73;99580.85;2231218;79;31172;-69
2021/10/20 13:28:01;;;;;;;10.10;3.70;;;;;;;21.87;46.74;99578.45;2245628;78;32851;-68
2021/10/20 13:31:07;;;;;;;;;;;;;;;21.82;46.86;99576.23;2253496;78;28985;-67
2021/10/20 13:34:13;;;;;;;7.33;4.50;;;;;;;21.79;46.74;99568.38;2235367;79;27616;-67
2021/10/20 13:37:18;;;;;;;5.65;3.60;;;;;;;21.75;47.08;99571.12;2234276;79;29679;-66
2021/10/20 13:40:21;;;;;;;4.53;3.50;;;;;;;21.73;47.34;99573.66;2234285;78;31163;-68
2021/10/20 13:43:28;;;;;;;6.20;3.80;;;;;;;21.68;47.36;99564.62;2195078;81;27950;-69
2021/10/20 13:46:33;;;;;;;5.50;4.08;;;;;;;21.64;47.60;99562.75;2231672;78;29952;-68
2021/10/20 13:49:37;;;;;;;11.03;4.75;;;;;;;21.59;47.92;99569.16;2208855;79;27760;-69
2021/10/20 13:52:42;;;;;;;8.23;4.55;;;;;;;21.53;47.93;99576.14;2226846;78;29893;-67
2021/10/20 13:55:45;;;;;;;9.83;4.53;;;;;;;21.47;48.25;99586.33;2275173;78;30403;-67
2021/10/20 13:58:53;;;;;;;7.72;5.08;;;;;;;21.43;48.51;99586.30;2265763;77;33748;-68
2021/10/20 14:01:59;;;;;;;7.50;4.70;;;;;;;21.36;48.57;99590.20;2194806;81;29044;-66
2021/10/20 14:05:09;;;;;;;6.75;4.67;;;;;;;21.32;48.88;99591.56;2181783;81;27775;-68
2021/10/20 14:08:12;;;;;;;6.35;4.42;;;;;;;21.30;49.18;99575.89;2157190;81;29868;-67
2021/10/20 14:11:15;;;;;;;7.83;4.33;;;;;;;21.25;49.23;99565.98;2156520;81;31044;-68
2021/10/20 14:14:19;;;;;;;8.10;4.50;;;;;;;21.16;49.36;99555.55;2157246;82;33749;-66
2021/10/20 14:17:25;;;;;;;5.67;4.25;;;;;;;21.12;49.55;99556.89;2157595;81;29096;-66
2021/10/20 14:20:27;;;;;;;7.95;4.60;;;;;;;21.06;49.72;99547.51;2188605;81;27715;-68
2021/10/20 14:23:30;;;;;;;7.58;4.67;;;;;;;21.01;49.94;99547.66;2194457;81;29229;-68
2021/10/20 14:26:36;;;;;;;6.42;4.65;;;;;;;20.96;50.13;99539.98;2194066;81;33196;-68